Aérodrome :
LOGIN :

S'inscrire | Disclaimer

   EN    FR    IT 

 










Légende :    VFR   VFR Marginal   IFR   IFR Intensif   IFR Très Intensif
Visi : 
Plafond : 
>= 8 km
>= 3000ft
5 à 8 km
1000 à 3000 ft
1500m à 5 km
500 à 1000 ft
800 à 1500m
200 à 500 ft
< 800m
< 200 ft
Symboles :   Orages  Brouillard  Fortes neiges  Fortes précipitations  Vent > 20 kt
SIGMETs :   Divers  Orages  Givrage  Turbulence  Onde Orograph.  Cendres Volcan.







- Altitude de l'aérodrome : 375 ft
- Code IATA : MST


EHBK - Maastricht Aachen

DERNIER METAR :
  • 220555Z AUTO 23020G30KT 200V260 9999 FEW008 OVC010 09/08 Q1009 TEMPO 4000 DZRA BKN008

METARs EXPIRÉS :
  • 220525Z AUTO 23019KT 200V260 9000 FEW007 SCT009 OVC010 09/08 Q1009 TEMPO 4000 DZRA
  • 220455Z AUTO 23019KT 3900 DZ SCT007 BKN008 OVC010 09/08 Q1009
  • 220425Z AUTO 23023G33KT 7000 SCT009 BKN011 OVC013 09/08 Q1010
  • 220355Z AUTO 23020KT 9999 FEW010 BKN013 BKN015 10/08 Q1010
  • 220325Z AUTO 23020KT 200V260 9999 FEW008 SCT009 BKN010 10/08 Q1010

TAF TAF EHBK
Valide du 22 à 06h jusqu'au 23 à 12h UTC


220504Z 2206/2312 24017G30KT 8000 BKN010
TEMPO 2206/2312 4000 -DZRA BKN006
PROB40
TEMPO 2206/2308 3000 RADZ BR BKN003
BECMG 2310/2312 21020G32KT 9999 BKN020
Pas de NOTAMs connus pour ce terrain.



MET'MAP, la Météo Aéronautique d'un coup d'oeil ! - Copyright ORBIFLY Décembre 2007 - Disclaimer

ORBIFLY MET'MAP TEAM :

Programmation & Développement : Alexandra Zaïnal
Conception & Développement : Baudouin d'Aumeries
Co-Programmation & Développement : Marc-Olivier Méhu
Soutien technique & logistique : Manuel Goepfert

Contact : metmap@orbifly.com




SOURCES & CREDITS :

   NOAA